createdAt,value
2019-04-21T00:02:05.661Z,8.10
2019-04-21T00:04:48.213Z,8.10
2019-04-21T00:07:25.056Z,8.20
2019-04-21T00:09:58.259Z,8.20
2019-04-21T00:12:22.840Z,8.20
2019-04-21T00:14:46.091Z,8.30
2019-04-21T00:17:12.911Z,8.20
2019-04-21T00:19:40.861Z,8.20
2019-04-21T00:22:23.178Z,8.20
2019-04-21T00:24:56.191Z,8.20
2019-04-21T00:27:29.209Z,8.10
2019-04-21T00:30:01.763Z,8.10
2019-04-21T00:32:25.712Z,8.10
2019-04-21T00:34:48.442Z,8.00
2019-04-21T00:37:24.182Z,8.10
2019-04-21T00:40:03.663Z,8.10
2019-04-21T00:42:34.285Z,8.00
2019-04-21T00:44:59.175Z,7.90
2019-04-21T00:47:36.583Z,7.90
2019-04-21T00:50:08.091Z,7.90
2019-04-21T00:55:24.439Z,8.00
2019-04-21T01:00:18.689Z,7.90
2019-04-21T01:02:52.524Z,7.90
2019-04-21T01:05:16.695Z,7.80
2019-04-21T01:08:00.603Z,7.80
2019-04-21T01:10:06.389Z,7.70
2019-04-21T01:12:53.576Z,7.80
2019-04-21T01:15:26.148Z,7.70
2019-04-21T01:17:48.099Z,7.60
2019-04-21T01:20:12.136Z,7.60
2019-04-21T01:22:26.059Z,7.50
2019-04-21T01:25:04.584Z,7.50
2019-04-21T01:27:45.617Z,7.60
2019-04-21T01:30:16.478Z,7.60
2019-04-21T01:32:50.153Z,7.60
2019-04-21T01:35:17.320Z,7.60
2019-04-21T01:37:50.897Z,7.60
2019-04-21T01:40:26.037Z,7.70
2019-04-21T01:42:45.966Z,7.80
2019-04-21T01:45:15.730Z,7.80
2019-04-21T01:47:49.068Z,7.80
2019-04-21T01:50:07.017Z,7.80
2019-04-21T01:53:11.559Z,7.80
2019-04-21T01:55:24.936Z,7.70
2019-04-21T01:57:54.041Z,7.70
2019-04-21T02:00:23.464Z,7.70
2019-04-21T02:03:10.349Z,7.80
2019-04-21T02:05:40.864Z,7.80
2019-04-21T02:08:02.551Z,7.70
2019-04-21T02:10:34.675Z,7.80
2019-04-21T02:13:03.476Z,7.80
2019-04-21T02:15:37.895Z,7.80
2019-04-21T02:17:59.691Z,7.70
2019-04-21T02:20:28.118Z,7.60
2019-04-21T02:23:26.383Z,7.50
2019-04-21T02:25:39.999Z,7.50
2019-04-21T02:28:11.412Z,7.40
2019-04-21T02:30:56.611Z,7.30
2019-04-21T02:33:25.876Z,7.20
2019-04-21T02:36:15.395Z,7.10
2019-04-21T02:38:28.031Z,7.10
2019-04-21T02:43:21.118Z,6.90
2019-04-21T02:45:47.901Z,6.90
2019-04-21T02:48:19.674Z,6.80
2019-04-21T02:50:47.209Z,6.70
2019-04-21T02:55:51.394Z,6.60
2019-04-21T02:58:29.441Z,6.60
2019-04-21T03:01:50.332Z,6.60
2019-04-21T03:03:50.741Z,6.40
2019-04-21T03:06:27.204Z,6.40
2019-04-21T03:09:05.906Z,6.30
2019-04-21T03:11:22.011Z,6.30
2019-04-21T03:13:57.346Z,6.30
2019-04-21T03:21:22.196Z,6.40
2019-04-21T03:23:58.346Z,6.30
2019-04-21T03:28:54.642Z,6.40
2019-04-21T03:32:05.726Z,6.40
2019-04-21T03:34:27.527Z,6.40
2019-04-21T03:36:47.780Z,6.40
2019-04-21T03:41:31.653Z,6.40
2019-04-21T03:43:59.267Z,6.50
2019-04-21T03:49:04.644Z,6.60
2019-04-21T03:51:32.992Z,6.70
2019-04-21T04:04:20.202Z,7.00
2019-04-21T04:07:05.731Z,7.10
2019-04-21T04:14:34.237Z,7.00
2019-04-21T04:17:04.734Z,7.10
2019-04-21T04:19:34.412Z,7.00
2019-04-21T04:22:09.233Z,7.10
2019-04-21T04:24:33.996Z,7.30
2019-04-21T04:29:24.520Z,7.40
2019-04-21T04:31:55.330Z,7.50
2019-04-21T04:34:49.838Z,7.40
2019-04-21T04:37:05.488Z,7.40
2019-04-21T04:39:42.986Z,7.20
2019-04-21T04:47:20.412Z,7.00
2019-04-21T04:59:49.609Z,7.00
2019-04-21T05:02:27.958Z,7.00
2019-04-21T05:05:09.177Z,7.10
2019-04-21T05:07:27.289Z,7.20
2019-04-21T05:09:57.663Z,7.20
2019-04-21T05:14:55.275Z,7.20
2019-04-21T05:17:30.860Z,7.20
2019-04-21T05:20:01.826Z,7.20
2019-04-21T05:22:22.161Z,7.30
2019-04-21T05:24:44.259Z,7.30
2019-04-21T05:27:29.434Z,7.50
2019-04-21T05:30:10.369Z,7.60
2019-04-21T05:32:45.163Z,7.60
2019-04-21T05:35:14.102Z,7.60
2019-04-21T05:37:56.665Z,7.40
2019-04-21T05:40:20.046Z,7.50
2019-04-21T05:42:49.623Z,7.50
2019-04-21T05:45:37.359Z,7.70
2019-04-21T05:48:12.171Z,7.70
2019-04-21T05:50:32.113Z,7.90
2019-04-21T05:53:00.783Z,7.90
2019-04-21T05:55:56.707Z,7.90
2019-04-21T05:58:21.412Z,8.00
2019-04-21T06:01:47.083Z,7.90
2019-04-21T06:03:09.869Z,7.90
2019-04-21T06:05:44.545Z,7.90
2019-04-21T06:08:12.916Z,8.00
2019-04-21T06:10:43.304Z,8.20
2019-04-21T06:13:12.930Z,8.20
2019-04-21T06:15:44.569Z,8.00
2019-04-21T06:18:13.715Z,8.20
2019-04-21T06:20:40.684Z,8.20
2019-04-21T06:23:13.565Z,8.30
2019-04-21T06:25:54.923Z,8.40
2019-04-21T06:28:12.098Z,8.40
2019-04-21T06:30:48.643Z,8.50
2019-04-21T06:33:16.889Z,8.50
2019-04-21T06:36:21.608Z,8.60
2019-04-21T06:38:54.469Z,8.70
2019-04-21T06:41:21.616Z,8.70
2019-04-21T06:43:49.964Z,8.70
2019-04-21T06:46:21.142Z,8.70
2019-04-21T06:48:49.871Z,8.70
2019-04-21T06:51:16.981Z,8.80
2019-04-21T06:53:52.455Z,8.80
2019-04-21T06:56:15.246Z,9.00
2019-04-21T06:58:47.396Z,9.10
2019-04-21T07:01:19.051Z,9.10
2019-04-21T07:03:54.978Z,9.30
2019-04-21T07:06:12.666Z,9.30
2019-04-21T07:08:56.635Z,9.20
2019-04-21T07:11:14.764Z,9.20
2019-04-21T07:13:49.026Z,9.20
2019-04-21T07:16:18.903Z,9.40
2019-04-21T07:18:58.647Z,9.50
2019-04-21T07:21:25.505Z,9.50
2019-04-21T07:23:53.838Z,9.80
2019-04-21T07:26:19.508Z,9.70
2019-04-21T07:28:56.819Z,9.80
2019-04-21T07:31:17.806Z,9.90
2019-04-21T07:33:57.581Z,10.10
2019-04-21T07:36:35.505Z,10.20
2019-04-21T07:38:49.889Z,10.30
2019-04-21T07:41:15.821Z,10.30
2019-04-21T07:43:55.692Z,10.30
2019-04-21T07:46:25.442Z,10.50
2019-04-21T07:49:01.828Z,10.60
2019-04-21T07:51:42.318Z,10.80
2019-04-21T07:54:15.360Z,10.80
2019-04-21T07:56:26.661Z,10.90
2019-04-21T07:59:30.344Z,11.00
2019-04-21T08:01:37.357Z,11.20
2019-04-21T08:04:33.218Z,11.30
2019-04-21T08:06:43.801Z,11.10
2019-04-21T08:09:12.289Z,11.10
2019-04-21T08:11:38.649Z,10.80
2019-04-21T08:14:13.917Z,11.10
2019-04-21T08:16:44.957Z,11.00
2019-04-21T08:19:15.570Z,10.80
2019-04-21T08:24:17.774Z,10.50
2019-04-21T08:26:43.324Z,10.70
2019-04-21T08:29:29.717Z,10.60
2019-04-21T08:32:00.148Z,10.40
2019-04-21T08:36:46.150Z,10.50
2019-04-21T08:39:13.408Z,10.90
2019-04-21T08:41:43.777Z,11.10
2019-04-21T08:44:20.920Z,11.30
2019-04-21T08:46:49.124Z,11.40
2019-04-21T08:49:15.291Z,11.40
2019-04-21T08:51:57.169Z,11.20
2019-04-21T08:54:23.604Z,11.50
2019-04-21T08:56:59.358Z,11.40
2019-04-21T08:59:36.350Z,11.00
2019-04-21T09:02:14.479Z,11.30
2019-04-21T09:04:41.270Z,11.40
2019-04-21T09:07:21.345Z,11.10
2019-04-21T09:09:59.562Z,11.00
2019-04-21T09:12:15.003Z,11.30
2019-04-21T09:14:45.386Z,11.40
2019-04-21T09:17:10.738Z,11.50
2019-04-21T09:19:52.856Z,11.40
2019-04-21T09:22:12.873Z,11.60
2019-04-21T09:24:46.956Z,11.70
2019-04-21T09:27:18.661Z,11.70
2019-04-21T09:29:36.642Z,11.50
2019-04-21T09:32:00.021Z,11.60
2019-04-21T09:34:35.774Z,11.50
2019-04-21T09:37:16.437Z,11.70
2019-04-21T09:39:31.933Z,11.80
2019-04-21T09:42:02.488Z,12.00
2019-04-21T09:44:36.067Z,12.20
2019-04-21T09:47:03.170Z,12.20
2019-04-21T09:49:33.281Z,12.40
2019-04-21T09:52:02.234Z,12.40
2019-04-21T09:54:35.151Z,12.70
2019-04-21T09:57:05.840Z,13.10
2019-04-21T09:59:37.134Z,13.10
2019-04-21T10:02:09.578Z,13.40
2019-04-21T10:04:33.636Z,13.40
2019-04-21T10:07:02.533Z,13.50
2019-04-21T10:09:31.228Z,13.50
2019-04-21T10:12:00.840Z,13.60
2019-04-21T10:14:30.854Z,13.30
2019-04-21T10:17:19.805Z,13.10
2019-04-21T10:19:48.590Z,13.10
2019-04-21T10:22:17.269Z,13.10
2019-04-21T10:24:46.741Z,13.10
2019-04-21T10:27:16.985Z,13.10
2019-04-21T10:29:47.204Z,13.40
2019-04-21T10:32:18.636Z,13.20
2019-04-21T10:34:47.492Z,13.40
2019-04-21T10:37:16.738Z,13.60
2019-04-21T10:39:45.601Z,13.80
2019-04-21T10:42:15.513Z,13.60
2019-04-21T10:44:45.222Z,13.60
2019-04-21T10:47:14.490Z,13.30
2019-04-21T10:49:46.513Z,13.10
2019-04-21T10:52:15.431Z,13.00
2019-04-21T10:55:08.283Z,13.20
2019-04-21T10:57:19.994Z,13.40
2019-04-21T10:59:51.040Z,13.50
2019-04-21T11:02:39.138Z,13.50
2019-04-21T11:05:09.091Z,13.60
2019-04-21T11:07:55.226Z,13.60
2019-04-21T11:10:16.111Z,13.60
2019-04-21T11:12:47.635Z,13.30
2019-04-21T11:15:15.395Z,13.20
2019-04-21T11:17:45.556Z,13.10
2019-04-21T11:20:17.098Z,13.20
2019-04-21T11:22:47.161Z,13.40
2019-04-21T11:25:16.188Z,13.40
2019-04-21T11:27:47.035Z,13.40
2019-04-21T11:30:15.993Z,13.50
2019-04-21T11:32:46.390Z,13.50
2019-04-21T11:35:15.384Z,13.70
2019-04-21T11:37:46.204Z,13.60
2019-04-21T11:40:18.198Z,13.70
2019-04-21T11:42:46.317Z,13.70
2019-04-21T11:45:34.679Z,13.40
2019-04-21T11:48:16.981Z,13.60
2019-04-21T11:50:46.702Z,13.90
2019-04-21T11:53:16.738Z,14.10
2019-04-21T11:55:48.554Z,13.90
2019-04-21T11:58:16.197Z,14.10
2019-04-21T12:00:47.476Z,13.80
2019-04-21T12:03:17.366Z,13.70
2019-04-21T12:05:47.747Z,13.50
2019-04-21T12:08:26.313Z,13.50
2019-04-21T12:10:47.355Z,13.40
2019-04-21T12:13:18.221Z,13.20
2019-04-21T12:15:47.168Z,13.20
2019-04-21T12:18:16.011Z,13.10
2019-04-21T12:20:45.162Z,13.20
2019-04-21T12:23:14.342Z,13.40
2019-04-21T12:25:49.608Z,13.40
2019-04-21T12:28:19.721Z,13.60
2019-04-21T12:30:51.674Z,13.60
2019-04-21T12:33:22.307Z,13.80
2019-04-21T12:35:51.573Z,13.90
2019-04-21T12:38:33.335Z,14.00
2019-04-21T12:40:50.874Z,13.80
2019-04-21T12:43:20.900Z,13.90
2019-04-21T12:45:49.759Z,13.80
2019-04-21T12:48:20.019Z,13.80
2019-04-21T12:50:50.277Z,13.90
2019-04-21T12:53:19.363Z,13.90
2019-04-21T12:55:49.609Z,14.00
2019-04-21T12:58:19.371Z,14.00
2019-04-21T13:00:49.496Z,13.90
2019-04-21T13:03:21.624Z,14.10
2019-04-21T13:05:49.545Z,14.20
2019-04-21T13:08:19.785Z,14.00
2019-04-21T13:10:51.861Z,14.30
2019-04-21T13:13:21.946Z,14.40
2019-04-21T13:15:51.677Z,14.30
2019-04-21T13:18:21.112Z,14.30
2019-04-21T13:20:51.766Z,14.50
2019-04-21T13:23:20.921Z,14.40
2019-04-21T13:25:50.021Z,14.20
2019-04-21T13:28:18.857Z,14.10
2019-04-21T13:30:48.606Z,14.20
2019-04-21T13:33:18.814Z,14.30
2019-04-21T13:35:48.853Z,14.20
2019-04-21T13:38:26.992Z,14.20
2019-04-21T13:41:10.528Z,14.00
2019-04-21T13:43:27.351Z,14.00
2019-04-21T13:45:57.395Z,14.10
2019-04-21T13:48:26.515Z,14.30
2019-04-21T13:50:55.482Z,14.60
2019-04-21T13:53:25.015Z,14.70
2019-04-21T13:55:54.332Z,14.70
2019-04-21T13:58:24.206Z,14.50
2019-04-21T14:00:55.987Z,14.50
2019-04-21T14:03:26.741Z,14.40
2019-04-21T14:05:56.183Z,14.50
2019-04-21T14:08:29.256Z,14.60
2019-04-21T14:10:57.923Z,14.50
2019-04-21T14:13:26.835Z,14.50
2019-04-21T14:15:57.957Z,14.50
2019-04-21T14:18:26.891Z,14.60
2019-04-21T14:20:55.681Z,14.80
2019-04-21T14:23:32.397Z,15.10
2019-04-21T14:25:55.598Z,15.50
2019-04-21T14:28:24.499Z,15.70
2019-04-21T14:30:54.367Z,15.90
2019-04-21T14:33:23.724Z,16.20
2019-04-21T14:35:52.820Z,16.30
2019-04-21T14:38:22.759Z,16.20
2019-04-21T14:40:54.411Z,16.10
2019-04-21T14:43:23.709Z,15.90
2019-04-21T14:46:04.790Z,15.80
2019-04-21T14:48:47.425Z,15.80
2019-04-21T14:51:25.043Z,15.70
2019-04-21T14:53:56.362Z,15.30
2019-04-21T14:56:27.016Z,15.50
2019-04-21T14:59:00.944Z,15.80
2019-04-21T15:01:31.543Z,16.30
2019-04-21T15:04:03.821Z,16.30
2019-04-21T15:06:33.693Z,16.30
2019-04-21T15:09:03.032Z,15.90
2019-04-21T15:11:31.974Z,15.70
2019-04-21T15:14:02.019Z,15.50
2019-04-21T15:16:31.180Z,15.60
2019-04-21T15:18:59.992Z,15.50
2019-04-21T15:21:29.108Z,15.50
2019-04-21T15:23:58.225Z,15.60
2019-04-21T15:26:28.427Z,15.60
2019-04-21T15:28:57.332Z,15.60
2019-04-21T15:31:30.603Z,15.70
2019-04-21T15:33:57.556Z,15.80
2019-04-21T15:36:27.265Z,15.90
2019-04-21T15:38:56.199Z,16.10
2019-04-21T15:41:26.774Z,16.00
2019-04-21T15:43:56.451Z,16.30
2019-04-21T15:46:29.761Z,16.50
2019-04-21T15:48:59.044Z,16.90
2019-04-21T15:51:29.620Z,16.70
2019-04-21T15:54:00.450Z,16.90
2019-04-21T15:56:40.774Z,16.90
2019-04-21T15:59:14.763Z,16.80
2019-04-21T16:01:57.262Z,16.70
2019-04-21T16:04:25.997Z,16.70
2019-04-21T16:06:57.479Z,16.00
2019-04-21T16:09:27.744Z,15.70
2019-04-21T16:11:55.894Z,15.70
2019-04-21T16:14:24.862Z,15.70
2019-04-21T16:16:53.857Z,15.50
2019-04-21T16:19:23.030Z,15.10
2019-04-21T16:21:52.792Z,14.50
2019-04-21T16:24:23.175Z,14.40
2019-04-21T16:26:52.964Z,14.50
2019-04-21T16:29:22.999Z,14.50
2019-04-21T16:31:53.168Z,14.70
2019-04-21T16:34:22.097Z,14.80
2019-04-21T16:36:51.794Z,14.40
2019-04-21T16:39:23.151Z,14.30
2019-04-21T16:41:52.093Z,14.10
2019-04-21T16:44:25.183Z,13.60
2019-04-21T16:46:54.112Z,13.40
2019-04-21T16:49:22.852Z,13.30
2019-04-21T16:51:53.959Z,13.00
2019-04-21T16:54:24.552Z,12.80
2019-04-21T16:56:54.962Z,12.50
2019-04-21T16:59:28.777Z,12.30
2019-04-21T17:01:58.747Z,12.20
2019-04-21T17:04:28.730Z,12.00
2019-04-21T17:06:58.815Z,11.90
2019-04-21T17:09:28.556Z,11.70
2019-04-21T17:12:01.775Z,11.50
2019-04-21T17:14:46.254Z,11.40
2019-04-21T17:17:25.020Z,11.30
2019-04-21T17:19:36.026Z,11.10
2019-04-21T17:22:01.895Z,11.10
2019-04-21T17:24:30.685Z,11.00
2019-04-21T17:26:59.603Z,10.90
2019-04-21T17:29:28.589Z,10.80
2019-04-21T17:31:57.436Z,10.80
2019-04-21T17:34:32.521Z,10.70
2019-04-21T17:37:01.311Z,10.60
2019-04-21T17:39:31.111Z,10.50
2019-04-21T17:42:11.743Z,10.40
2019-04-21T17:44:30.841Z,10.30
2019-04-21T17:47:20.088Z,10.20
2019-04-21T17:49:39.163Z,10.00
2019-04-21T17:52:16.290Z,10.00
2019-04-21T17:54:50.734Z,9.90
2019-04-21T17:57:36.842Z,9.80
2019-04-21T18:00:25.914Z,9.70
2019-04-21T18:02:41.413Z,9.70
2019-04-21T18:05:19.363Z,9.70
2019-04-21T18:07:43.346Z,9.60
2019-04-21T18:10:07.340Z,9.60
2019-04-21T18:12:36.114Z,9.50
2019-04-21T18:14:59.830Z,9.50
2019-04-21T18:17:22.662Z,9.50
2019-04-21T18:19:53.623Z,9.40
2019-04-21T18:22:31.325Z,9.40
2019-04-21T18:25:04.709Z,9.30
2019-04-21T18:27:29.790Z,9.40
2019-04-21T18:30:02.524Z,9.30
2019-04-21T18:32:36.140Z,9.30
2019-04-21T18:35:13.550Z,9.30
2019-04-21T18:37:59.792Z,9.30
2019-04-21T18:40:27.462Z,9.20
2019-04-21T18:43:23.494Z,9.20
2019-04-21T18:48:19.100Z,9.00
2019-04-21T18:50:50.981Z,9.00
2019-04-21T18:53:27.050Z,9.00
2019-04-21T18:55:47.879Z,8.90
2019-04-21T18:58:15.805Z,8.90
2019-04-21T19:00:45.780Z,8.90
2019-04-21T19:03:20.823Z,8.90
2019-04-21T19:05:52.050Z,8.90
2019-04-21T19:08:30.630Z,8.80
2019-04-21T19:11:08.828Z,8.80
2019-04-21T19:13:44.477Z,8.80
2019-04-21T19:19:09.766Z,8.60
2019-04-21T19:21:07.457Z,8.60
2019-04-21T19:24:06.758Z,8.50
2019-04-21T19:26:25.298Z,8.50
2019-04-21T19:28:47.537Z,8.50
2019-04-21T19:31:15.918Z,8.50
2019-04-21T19:33:36.111Z,8.50
2019-04-21T19:35:57.677Z,8.50
2019-04-21T19:38:35.036Z,8.50
2019-04-21T19:41:15.680Z,8.50
2019-04-21T19:43:49.287Z,8.50
2019-04-21T19:46:13.936Z,8.50
2019-04-21T19:48:55.297Z,8.50
2019-04-21T19:51:15.146Z,8.40
2019-04-21T19:53:44.568Z,8.40
2019-04-21T19:56:03.782Z,8.40
2019-04-21T19:58:38.462Z,8.40
2019-04-21T20:01:03.543Z,8.40
2019-04-21T20:03:32.577Z,8.30
2019-04-21T20:06:11.787Z,8.20
2019-04-21T20:08:44.236Z,8.10
2019-04-21T20:11:19.096Z,8.10
2019-04-21T20:14:03.307Z,8.10
2019-04-21T20:16:23.096Z,8.00
2019-04-21T20:18:42.383Z,8.00
2019-04-21T20:21:06.106Z,8.00
2019-04-21T20:23:38.007Z,8.00
2019-04-21T20:26:08.579Z,8.00
2019-04-21T20:28:48.975Z,8.10
2019-04-21T20:31:23.882Z,8.10
2019-04-21T20:34:02.266Z,8.10
2019-04-21T20:36:31.386Z,8.10
2019-04-21T20:38:48.904Z,8.10
2019-04-21T20:41:22.698Z,8.00
2019-04-21T20:44:00.848Z,8.00
2019-04-21T20:46:29.281Z,8.00
2019-04-21T20:49:00.044Z,7.90
2019-04-21T20:51:35.770Z,7.90
2019-04-21T20:53:59.002Z,7.80
2019-04-21T20:56:26.883Z,7.80
2019-04-21T20:58:59.746Z,7.70
2019-04-21T21:01:35.866Z,7.60
2019-04-21T21:03:57.671Z,7.70
2019-04-21T21:06:33.746Z,7.80
2019-04-21T21:09:09.087Z,7.80
2019-04-21T21:11:41.085Z,7.80
2019-04-21T21:14:11.892Z,7.90
2019-04-21T21:16:46.204Z,7.90
2019-04-21T21:19:18.236Z,7.90
2019-04-21T21:21:40.206Z,8.00
2019-04-21T21:24:10.098Z,8.10
2019-04-21T21:26:44.081Z,8.20
2019-04-21T21:29:18.315Z,8.30
2019-04-21T21:31:48.870Z,8.20
2019-04-21T21:34:25.763Z,8.10
2019-04-21T21:36:51.107Z,8.10
2019-04-21T21:39:18.399Z,8.10
2019-04-21T21:41:40.616Z,8.10
2019-04-21T21:44:10.928Z,8.00
2019-04-21T21:46:50.580Z,8.00
2019-04-21T21:49:22.643Z,8.00
2019-04-21T21:51:49.920Z,7.90
2019-04-21T21:54:07.591Z,7.90
2019-04-21T21:56:36.556Z,7.90
2019-04-21T21:59:14.976Z,7.90
2019-04-21T22:01:44.103Z,7.90
2019-04-21T22:04:15.366Z,7.90
2019-04-21T22:06:47.155Z,7.80
2019-04-21T22:09:12.653Z,7.90
2019-04-21T22:11:42.209Z,7.90
2019-04-21T22:14:17.087Z,7.90
2019-04-21T22:16:49.317Z,7.90
2019-04-21T22:19:34.021Z,7.90
2019-04-21T22:21:59.533Z,7.80
2019-04-21T22:24:29.314Z,7.80
2019-04-21T22:26:43.221Z,7.70
2019-04-21T22:29:12.062Z,7.80
2019-04-21T22:31:41.564Z,7.70
2019-04-21T22:34:14.451Z,7.70
2019-04-21T22:36:52.778Z,7.70
2019-04-21T22:39:29.697Z,7.60
2019-04-21T22:41:46.672Z,7.60
2019-04-21T22:44:20.542Z,7.60
2019-04-21T22:46:58.626Z,7.50
2019-04-21T22:49:21.525Z,7.60
2019-04-21T22:51:51.987Z,7.60
2019-04-21T22:54:26.824Z,7.50
2019-04-21T22:56:59.247Z,7.50
2019-04-21T22:59:24.117Z,7.50
2019-04-21T23:01:52.648Z,7.50
2019-04-21T23:04:26.623Z,7.50
2019-04-21T23:07:00.049Z,7.50
2019-04-21T23:09:23.008Z,7.50
2019-04-21T23:11:55.833Z,7.50
2019-04-21T23:14:23.652Z,7.50
2019-04-21T23:16:54.707Z,7.60
2019-04-21T23:19:35.716Z,7.60
2019-04-21T23:22:12.122Z,7.60
2019-04-21T23:24:45.573Z,7.60
2019-04-21T23:27:11.122Z,7.50
2019-04-21T23:29:52.678Z,7.50
2019-04-21T23:32:08.492Z,7.50
2019-04-21T23:34:30.798Z,7.60
2019-04-21T23:37:03.269Z,7.60
2019-04-21T23:39:30.196Z,7.60
2019-04-21T23:41:57.787Z,7.50
2019-04-21T23:44:28.139Z,7.50
2019-04-21T23:47:02.816Z,7.40
2019-04-21T23:49:39.349Z,7.50
2019-04-21T23:52:03.088Z,7.50
2019-04-21T23:54:29.242Z,7.50
2019-04-21T23:57:01.706Z,7.40
2019-04-21T23:59:31.230Z,7.40
